Time;durP1;ratioP1;P1;durP2;ratioP2;P2;SDS_P1;SDS_P2;PMS_P1;PMS_P2;Temp;Humidity;BMP_temperature;BMP_pressure;BME280_temperature;BME280_humidity;BME280_pressure;Samples;Min_cycle;Max_cycle;Signal;HPM_P1;HPM_P2
2022/10/12 00:02:08;;;;;;;12.80;7.78;;;;;;;;;;5061113;28;20033;-83
2022/10/12 00:04:34;;;;;;;11.13;8.27;;;;;;;;;;5052261;28;20125;-83
2022/10/12 00:07:00;;;;;;;12.27;8.20;;;;;;;;;;5063398;28;20082;-83
2022/10/12 00:09:26;;;;;;;12.80;8.20;;;;;;;;;;5061093;28;20796;-84
2022/10/12 00:11:52;;;;;;;12.68;7.93;;;;;;;;;;5073328;28;20032;-84
2022/10/12 00:14:18;;;;;;;12.07;8.30;;;;;;;;;;5061954;28;20376;-84
2022/10/12 00:16:44;;;;;;;12.32;8.25;;;;;;;;;;5059388;28;20021;-84
2022/10/12 00:19:12;;;;;;;11.30;7.78;;;;;;;;;;5036790;28;20032;-84
2022/10/12 00:21:38;;;;;;;11.55;8.25;;;;;;;;;;5073421;28;20020;-85
2022/10/12 00:24:05;;;;;;;12.70;8.15;;;;;;;;;;5080786;28;20013;-84
2022/10/12 00:26:32;;;;;;;11.63;8.45;;;;;;;;;;5059849;28;20475;-84
2022/10/12 00:28:59;;;;;;;10.20;8.10;;;;;;;;;;5051128;28;20029;-84
2022/10/12 00:31:26;;;;;;;10.70;8.10;;;;;;;;;;5060619;28;20029;-84
2022/10/12 00:33:52;;;;;;;13.57;8.20;;;;;;;;;;5060478;28;20021;-84
2022/10/12 00:36:23;;;;;;;12.20;7.60;;;;;;;;;;5061739;28;20032;-84
2022/10/12 00:38:50;;;;;;;12.02;8.07;;;;;;;;;;5060773;28;20434;-83
2022/10/12 00:41:17;;;;;;;10.80;7.75;;;;;;;;;;5060977;28;20032;-84
2022/10/12 00:43:44;;;;;;;12.70;8.35;;;;;;;;;;5060767;28;20056;-83
2022/10/12 00:46:22;;;;;;;14.68;8.50;;;;;;;;;;5061055;28;20116;-83
2022/10/12 00:48:51;;;;;;;10.85;8.25;;;;;;;;;;5043110;28;20375;-84
2022/10/12 00:51:20;;;;;;;13.23;7.97;;;;;;;;;;5061973;28;20033;-83
2022/10/12 00:53:50;;;;;;;10.93;7.70;;;;;;;;;;5066044;28;20025;-84
2022/10/12 00:56:19;;;;;;;11.50;7.28;;;;;;;;;;5061974;28;20025;-83
2022/10/12 00:58:47;;;;;;;12.93;7.97;;;;;;;;;;5067126;28;20025;-84
2022/10/12 01:01:13;;;;;;;12.00;8.13;;;;;;;;;;5068335;28;20058;-83
2022/10/12 01:03:39;;;;;;;12.05;7.32;;;;;;;;;;5087524;28;20211;-84
2022/10/12 01:06:17;;;;;;;10.73;8.15;;;;;;;;;;5073900;28;20040;-83
2022/10/12 01:08:46;;;;;;;11.95;7.93;;;;;;;;;;5073558;28;20084;-83
2022/10/12 01:11:12;;;;;;;12.85;7.72;;;;;;;;;;5062239;28;20025;-84
2022/10/12 01:13:38;;;;;;;13.35;8.07;;;;;;;;;;5053940;28;20041;-84
2022/10/12 01:16:19;;;;;;;11.48;7.78;;;;;;;;;;5068713;28;20128;-84
2022/10/12 01:18:49;;;;;;;12.63;7.78;;;;;;;;;;5060012;28;20020;-85
2022/10/12 01:21:19;;;;;;;13.38;8.45;;;;;;;;;;5065557;28;20033;-84
2022/10/12 01:23:59;;;;;;;12.05;8.57;;;;;;;;;;5066308;28;20090;-84
2022/10/12 01:26:33;;;;;;;12.32;7.35;;;;;;;;;;5066883;28;20040;-84
2022/10/12 01:29:13;;;;;;;11.02;7.28;;;;;;;;;;5065746;28;20471;-85
2022/10/12 01:31:45;;;;;;;12.05;7.78;;;;;;;;;;5075907;28;20032;-83
2022/10/12 01:34:14;;;;;;;10.93;7.30;;;;;;;;;;5065625;28;20085;-85
2022/10/12 01:36:42;;;;;;;12.90;7.88;;;;;;;;;;5064296;28;20116;-85
2022/10/12 01:39:12;;;;;;;12.88;7.47;;;;;;;;;;5056289;28;20041;-84
2022/10/12 01:41:45;;;;;;;11.80;7.35;;;;;;;;;;5063495;28;20076;-84
2022/10/12 01:44:10;;;;;;;11.50;7.45;;;;;;;;;;5064262;28;20032;-84
2022/10/12 01:46:39;;;;;;;11.13;7.25;;;;;;;;;;5062785;28;20029;-85
2022/10/12 01:49:05;;;;;;;9.93;6.57;;;;;;;;;;5060168;28;20021;-84
2022/10/12 01:51:34;;;;;;;12.27;7.32;;;;;;;;;;5062733;28;20029;-83
2022/10/12 01:54:03;;;;;;;10.85;7.68;;;;;;;;;;5056019;28;20028;-84
2022/10/12 01:56:35;;;;;;;11.65;7.47;;;;;;;;;;5061640;28;20028;-84
2022/10/12 01:59:17;;;;;;;10.68;7.35;;;;;;;;;;5062549;28;20032;-84
2022/10/12 02:02:06;;;;;;;10.85;6.60;;;;;;;;;;5065297;28;20118;-84
2022/10/12 02:04:36;;;;;;;10.02;7.07;;;;;;;;;;5042041;28;20037;-84
2022/10/12 02:07:10;;;;;;;11.07;6.88;;;;;;;;;;5062121;28;20036;-84
2022/10/12 02:09:37;;;;;;;10.45;6.68;;;;;;;;;;5062417;28;20029;-84
2022/10/12 02:12:12;;;;;;;10.73;6.90;;;;;;;;;;5057695;28;20029;-83
2022/10/12 02:14:40;;;;;;;13.43;6.93;;;;;;;;;;5052250;28;20029;-84
2022/10/12 02:17:08;;;;;;;9.15;6.28;;;;;;;;;;5061035;28;20052;-84
2022/10/12 02:19:39;;;;;;;11.07;6.95;;;;;;;;;;5062084;28;20025;-84
2022/10/12 02:22:06;;;;;;;10.50;6.15;;;;;;;;;;5045378;28;20029;-84
2022/10/12 02:24:34;;;;;;;12.27;6.75;;;;;;;;;;5061273;28;20087;-83
2022/10/12 02:27:00;;;;;;;9.77;6.45;;;;;;;;;;5065351;28;20104;-83
2022/10/12 02:29:29;;;;;;;12.25;6.85;;;;;;;;;;5064801;28;20032;-83
2022/10/12 02:32:10;;;;;;;10.18;6.85;;;;;;;;;;5080119;28;20108;-83
2022/10/12 02:34:40;;;;;;;9.77;6.32;;;;;;;;;;5053223;28;20079;-84
2022/10/12 02:37:24;;;;;;;9.15;6.22;;;;;;;;;;5049626;28;20029;-84
2022/10/12 02:39:54;;;;;;;13.07;6.18;;;;;;;;;;5048907;28;20071;-83
2022/10/12 02:42:30;;;;;;;9.00;6.32;;;;;;;;;;5054775;28;20078;-84
2022/10/12 02:44:58;;;;;;;11.43;6.75;;;;;;;;;;5066882;28;20472;-84
2022/10/12 02:47:26;;;;;;;9.57;5.82;;;;;;;;;;5065061;28;20430;-84
2022/10/12 02:49:53;;;;;;;8.88;5.90;;;;;;;;;;5048777;28;20029;-84
2022/10/12 02:52:22;;;;;;;9.93;6.53;;;;;;;;;;5085092;28;20020;-84
2022/10/12 02:54:51;;;;;;;8.70;6.05;;;;;;;;;;5080867;28;20033;-84
2022/10/12 02:57:17;;;;;;;11.00;6.03;;;;;;;;;;5063654;28;20039;-84
2022/10/12 02:59:43;;;;;;;8.75;5.75;;;;;;;;;;5065626;28;20045;-84
2022/10/12 03:02:09;;;;;;;8.57;5.53;;;;;;;;;;5064718;28;20033;-84
2022/10/12 03:04:36;;;;;;;9.00;5.50;;;;;;;;;;5062955;28;20117;-84
2022/10/12 03:07:02;;;;;;;9.40;5.55;;;;;;;;;;5063354;28;20025;-84
2022/10/12 03:09:28;;;;;;;7.70;5.10;;;;;;;;;;5062078;28;20021;-84
2022/10/12 03:11:54;;;;;;;9.18;5.53;;;;;;;;;;5063775;28;20443;-84
2022/10/12 03:14:21;;;;;;;10.98;6.03;;;;;;;;;;5060400;28;20029;-84
2022/10/12 03:16:47;;;;;;;12.77;6.45;;;;;;;;;;5045832;28;20025;-84
2022/10/12 03:19:14;;;;;;;9.85;6.40;;;;;;;;;;5061029;28;20025;-84
2022/10/12 03:21:40;;;;;;;10.10;5.45;;;;;;;;;;5063298;28;20021;-84
2022/10/12 03:24:06;;;;;;;10.77;5.93;;;;;;;;;;5063451;28;20025;-83
2022/10/12 03:26:33;;;;;;;10.55;6.28;;;;;;;;;;5063481;28;20037;-83
2022/10/12 03:28:59;;;;;;;8.70;5.57;;;;;;;;;;5063910;28;20080;-83
2022/10/12 03:31:25;;;;;;;10.55;6.28;;;;;;;;;;5052281;28;20032;-84
2022/10/12 03:33:51;;;;;;;9.32;5.75;;;;;;;;;;5064208;28;20060;-84
2022/10/12 03:36:17;;;;;;;10.70;6.10;;;;;;;;;;5049651;28;20029;-84
2022/10/12 03:38:43;;;;;;;8.75;5.50;;;;;;;;;;5061217;28;20068;-84
2022/10/12 03:41:10;;;;;;;9.15;5.32;;;;;;;;;;5060419;28;20368;-84
2022/10/12 03:43:36;;;;;;;8.88;5.22;;;;;;;;;;5063168;28;20036;-84
2022/10/12 03:46:02;;;;;;;9.70;5.60;;;;;;;;;;5059099;28;20248;-84
2022/10/12 03:48:27;;;;;;;8.70;5.32;;;;;;;;;;5045609;28;20395;-84
2022/10/12 03:50:54;;;;;;;10.65;5.60;;;;;;;;;;5061678;28;20033;-84
2022/10/12 03:53:20;;;;;;;10.52;6.13;;;;;;;;;;5063869;28;20017;-84
2022/10/12 03:55:46;;;;;;;10.07;6.20;;;;;;;;;;5062867;28;20029;-84
2022/10/12 03:58:12;;;;;;;10.52;5.47;;;;;;;;;;5061634;28;20435;-84
2022/10/12 04:00:39;;;;;;;10.35;6.47;;;;;;;;;;5060257;28;20028;-84
2022/10/12 04:03:05;;;;;;;10.55;5.90;;;;;;;;;;5052638;28;20030;-84
2022/10/12 04:05:31;;;;;;;10.35;6.25;;;;;;;;;;5056605;28;20450;-84
2022/10/12 04:07:57;;;;;;;11.88;6.22;;;;;;;;;;5044396;28;20044;-84
2022/10/12 04:10:23;;;;;;;9.25;5.57;;;;;;;;;;5060634;28;20035;-84
2022/10/12 04:12:49;;;;;;;10.07;5.72;;;;;;;;;;5058361;28;20044;-84
2022/10/12 04:15:17;;;;;;;9.23;5.25;;;;;;;;;;5045650;28;20424;-85
2022/10/12 04:17:43;;;;;;;11.45;6.45;;;;;;;;;;5060243;28;20077;-84
2022/10/12 04:20:10;;;;;;;10.13;6.85;;;;;;;;;;5060230;28;20098;-84
2022/10/12 04:22:36;;;;;;;11.00;6.47;;;;;;;;;;5055138;28;20506;-84
2022/10/12 04:25:02;;;;;;;11.90;6.20;;;;;;;;;;5052100;28;20042;-84
2022/10/12 04:27:28;;;;;;;10.57;6.68;;;;;;;;;;5055655;28;20048;-85
2022/10/12 04:29:56;;;;;;;10.75;6.03;;;;;;;;;;5042510;28;20429;-84
2022/10/12 04:32:22;;;;;;;11.15;6.68;;;;;;;;;;5061287;28;20025;-84
2022/10/12 04:34:48;;;;;;;11.13;5.88;;;;;;;;;;5057904;28;20385;-84
2022/10/12 04:37:14;;;;;;;10.52;5.75;;;;;;;;;;5061909;28;20036;-84
2022/10/12 04:39:40;;;;;;;9.35;6.45;;;;;;;;;;5058756;28;20056;-84
2022/10/12 04:42:06;;;;;;;10.38;6.05;;;;;;;;;;5054214;28;20506;-83
2022/10/12 04:44:32;;;;;;;10.57;5.75;;;;;;;;;;5033971;28;20041;-83
2022/10/12 04:46:59;;;;;;;11.95;6.03;;;;;;;;;;5060194;28;20099;-83
2022/10/12 04:49:24;;;;;;;14.93;7.38;;;;;;;;;;5057859;28;20052;-83
2022/10/12 04:51:50;;;;;;;10.13;6.63;;;;;;;;;;5041685;28;20025;-83
2022/10/12 04:54:16;;;;;;;11.73;6.40;;;;;;;;;;5045689;28;20092;-84
2022/10/12 04:56:42;;;;;;;13.70;6.75;;;;;;;;;;5058825;28;20081;-84
2022/10/12 04:59:08;;;;;;;9.70;6.30;;;;;;;;;;5034231;28;20416;-84
2022/10/12 05:01:34;;;;;;;11.02;6.13;;;;;;;;;;5057697;28;20107;-82
2022/10/12 05:04:01;;;;;;;11.65;6.00;;;;;;;;;;5053062;28;20052;-83
2022/10/12 05:06:27;;;;;;;9.13;5.95;;;;;;;;;;5058193;28;20044;-82
2022/10/12 05:08:53;;;;;;;10.43;5.90;;;;;;;;;;5064168;28;20035;-82
2022/10/12 05:11:19;;;;;;;9.15;5.68;;;;;;;;;;5078778;28;20071;-83
2022/10/12 05:13:45;;;;;;;9.50;5.30;;;;;;;;;;5070739;28;20021;-83
2022/10/12 05:16:11;;;;;;;8.13;5.13;;;;;;;;;;5046419;28;20497;-82
2022/10/12 05:18:37;;;;;;;10.48;5.57;;;;;;;;;;5057686;28;20076;-82
2022/10/12 05:21:03;;;;;;;11.65;4.93;;;;;;;;;;5056587;28;20021;-81
2022/10/12 05:23:29;;;;;;;10.52;5.65;;;;;;;;;;5058076;28;20025;-82
2022/10/12 05:25:55;;;;;;;8.75;4.82;;;;;;;;;;5058998;28;20111;-81
2022/10/12 05:28:22;;;;;;;9.40;6.47;;;;;;;;;;5057313;28;20017;-81
2022/10/12 05:30:51;;;;;;;12.45;5.53;;;;;;;;;;5052834;28;20341;-81
2022/10/12 05:33:17;;;;;;;9.30;5.15;;;;;;;;;;5056624;28;20028;-81
2022/10/12 05:35:43;;;;;;;8.82;5.53;;;;;;;;;;5058063;28;20025;-81
2022/10/12 05:38:10;;;;;;;9.57;5.00;;;;;;;;;;5059532;28;20090;-82
2022/10/12 05:40:36;;;;;;;9.95;5.75;;;;;;;;;;5056436;28;20041;-83
2022/10/12 05:43:03;;;;;;;9.98;4.78;;;;;;;;;;5060205;28;20029;-83
2022/10/12 05:45:29;;;;;;;8.18;4.93;;;;;;;;;;5059289;28;20064;-82
2022/10/12 05:47:55;;;;;;;11.00;5.68;;;;;;;;;;5059734;28;20017;-83
2022/10/12 05:50:21;;;;;;;10.15;5.05;;;;;;;;;;5060047;28;20029;-83
2022/10/12 05:52:47;;;;;;;8.85;4.55;;;;;;;;;;5059190;28;20032;-83
2022/10/12 05:55:13;;;;;;;9.77;5.50;;;;;;;;;;5060296;28;20029;-84
2022/10/12 05:57:39;;;;;;;9.35;5.10;;;;;;;;;;5057340;28;20028;-82
2022/10/12 06:00:07;;;;;;;8.65;4.78;;;;;;;;;;5057756;28;20029;-83
2022/10/12 06:02:33;;;;;;;8.82;4.40;;;;;;;;;;5058713;28;20060;-83
2022/10/12 06:04:59;;;;;;;10.18;4.38;;;;;;;;;;5054015;28;20036;-82
2022/10/12 06:07:25;;;;;;;8.48;5.28;;;;;;;;;;5058599;28;20066;-82
2022/10/12 06:09:52;;;;;;;10.70;5.57;;;;;;;;;;5040309;28;20017;-81
2022/10/12 06:12:18;;;;;;;11.40;5.13;;;;;;;;;;5059113;28;20033;-81
2022/10/12 06:14:44;;;;;;;10.70;4.90;;;;;;;;;;5047258;28;20032;-82
2022/10/12 06:17:10;;;;;;;9.20;4.82;;;;;;;;;;5059644;28;20033;-82
2022/10/12 06:19:36;;;;;;;9.13;5.20;;;;;;;;;;5055977;28;20495;-83
2022/10/12 06:22:03;;;;;;;10.18;5.28;;;;;;;;;;5058311;28;20025;-83
2022/10/12 06:24:29;;;;;;;8.02;4.40;;;;;;;;;;5056705;28;20317;-82
2022/10/12 06:26:55;;;;;;;10.57;4.40;;;;;;;;;;5058539;28;20028;-82
2022/10/12 06:29:22;;;;;;;9.20;4.30;;;;;;;;;;5055441;28;20052;-83
2022/10/12 06:31:49;;;;;;;10.30;4.32;;;;;;;;;;5058040;28;20024;-82
2022/10/12 06:34:15;;;;;;;9.82;4.63;;;;;;;;;;5056484;28;20022;-82
2022/10/12 06:36:41;;;;;;;7.57;4.55;;;;;;;;;;5057935;28;20031;-83
2022/10/12 06:39:08;;;;;;;9.23;5.03;;;;;;;;;;5055490;28;20387;-82
2022/10/12 06:41:34;;;;;;;8.20;4.45;;;;;;;;;;5056025;28;20086;-83
2022/10/12 06:44:00;;;;;;;9.77;5.07;;;;;;;;;;5039884;28;20033;-81
2022/10/12 06:46:26;;;;;;;12.13;5.03;;;;;;;;;;5040544;28;20175;-81
2022/10/12 06:48:52;;;;;;;10.38;5.07;;;;;;;;;;5057425;28;20021;-82
2022/10/12 06:51:18;;;;;;;8.13;5.28;;;;;;;;;;5058279;28;20025;-81
2022/10/12 06:53:44;;;;;;;8.98;4.43;;;;;;;;;;5039106;28;20104;-81
2022/10/12 06:56:11;;;;;;;11.80;4.68;;;;;;;;;;5059890;28;20041;-83
2022/10/12 06:58:37;;;;;;;8.80;4.18;;;;;;;;;;5059762;28;20036;-81
2022/10/12 07:01:04;;;;;;;9.45;5.07;;;;;;;;;;5058686;28;20059;-82
2022/10/12 07:03:30;;;;;;;8.73;4.20;;;;;;;;;;5058895;28;20040;-82
2022/10/12 07:06:04;;;;;;;8.23;4.40;;;;;;;;;;5058807;28;20021;-83
2022/10/12 07:08:30;;;;;;;9.02;5.40;;;;;;;;;;5059105;28;20024;-83
2022/10/12 07:11:14;;;;;;;7.63;4.28;;;;;;;;;;5057648;28;20021;-83
2022/10/12 07:13:40;;;;;;;7.50;4.15;;;;;;;;;;5062773;28;20110;-83
2022/10/12 07:16:06;;;;;;;8.00;4.70;;;;;;;;;;5062153;28;20126;-83
2022/10/12 07:18:33;;;;;;;8.90;4.75;;;;;;;;;;5060208;28;20471;-84
2022/10/12 07:21:01;;;;;;;6.90;4.57;;;;;;;;;;5059518;28;20036;-85
2022/10/12 07:23:27;;;;;;;10.70;4.82;;;;;;;;;;5041855;28;20052;-84
2022/10/12 07:25:53;;;;;;;7.70;4.28;;;;;;;;;;5061767;28;20029;-84
2022/10/12 07:28:20;;;;;;;11.18;4.15;;;;;;;;;;5060180;28;20017;-82
2022/10/12 07:30:46;;;;;;;9.48;4.70;;;;;;;;;;5059391;28;20025;-84
2022/10/12 07:33:12;;;;;;;9.25;4.78;;;;;;;;;;5060656;28;20052;-84
2022/10/12 07:35:38;;;;;;;8.32;4.53;;;;;;;;;;5043065;28;20666;-83
2022/10/12 07:38:04;;;;;;;6.70;4.00;;;;;;;;;;5060788;28;20025;-83
2022/10/12 07:40:31;;;;;;;8.88;4.93;;;;;;;;;;5059770;28;20189;-83
2022/10/12 07:42:57;;;;;;;9.68;4.60;;;;;;;;;;5043615;28;20021;-83
2022/10/12 07:45:24;;;;;;;7.40;4.07;;;;;;;;;;5060530;28;20054;-83
2022/10/12 07:47:50;;;;;;;11.35;4.63;;;;;;;;;;5060448;28;20025;-84
2022/10/12 07:50:16;;;;;;;9.07;4.60;;;;;;;;;;5058443;28;20036;-84
2022/10/12 07:52:42;;;;;;;8.43;4.53;;;;;;;;;;5041896;28;20021;-84
2022/10/12 07:55:08;;;;;;;9.70;4.68;;;;;;;;;;5041339;28;20082;-84
2022/10/12 07:57:34;;;;;;;7.80;4.53;;;;;;;;;;5059696;28;20025;-84
2022/10/12 08:00:00;;;;;;;8.95;4.60;;;;;;;;;;5056891;28;20055;-83
2022/10/12 08:02:26;;;;;;;8.70;4.55;;;;;;;;;;5058051;28;20029;-84
2022/10/12 08:04:52;;;;;;;8.50;4.82;;;;;;;;;;5056860;28;20067;-84
2022/10/12 08:07:18;;;;;;;8.10;4.68;;;;;;;;;;5057693;28;20048;-84
2022/10/12 08:09:44;;;;;;;7.72;4.18;;;;;;;;;;5057144;28;20475;-84
2022/10/12 08:12:10;;;;;;;7.63;4.45;;;;;;;;;;5056826;28;20029;-84
2022/10/12 08:14:37;;;;;;;9.63;4.97;;;;;;;;;;5056573;28;20046;-83
2022/10/12 08:17:04;;;;;;;9.93;4.60;;;;;;;;;;5057778;28;20021;-83
2022/10/12 08:19:30;;;;;;;8.05;4.78;;;;;;;;;;5057467;28;20429;-83
2022/10/12 08:21:56;;;;;;;9.75;4.60;;;;;;;;;;5039810;28;20380;-84
2022/10/12 08:24:22;;;;;;;8.80;4.72;;;;;;;;;;5056987;28;20021;-83
2022/10/12 08:26:48;;;;;;;7.00;4.57;;;;;;;;;;5039533;28;20017;-82
2022/10/12 08:29:14;;;;;;;9.98;4.47;;;;;;;;;;5037864;28;20021;-83
2022/10/12 08:31:40;;;;;;;7.85;4.20;;;;;;;;;;5056729;28;20021;-84
2022/10/12 08:34:07;;;;;;;9.55;4.55;;;;;;;;;;5057126;28;20032;-83
2022/10/12 08:36:33;;;;;;;7.93;4.70;;;;;;;;;;5058047;28;20021;-84
2022/10/12 08:38:59;;;;;;;8.45;4.90;;;;;;;;;;5038551;28;20384;-84
2022/10/12 08:41:28;;;;;;;7.53;4.20;;;;;;;;;;5057563;28;20037;-84
2022/10/12 08:44:06;;;;;;;7.90;4.80;;;;;;;;;;5059442;28;20025;-84
2022/10/12 08:46:32;;;;;;;8.38;4.85;;;;;;;;;;5041917;28;20029;-83
2022/10/12 08:49:01;;;;;;;8.00;4.13;;;;;;;;;;5057783;28;20032;-84
2022/10/12 08:51:30;;;;;;;7.30;3.72;;;;;;;;;;5039797;28;20092;-84
2022/10/12 08:53:59;;;;;;;9.32;4.25;;;;;;;;;;5058061;28;20082;-84
2022/10/12 08:56:25;;;;;;;9.80;4.70;;;;;;;;;;5041972;28;20025;-85
2022/10/12 08:58:52;;;;;;;8.35;4.78;;;;;;;;;;5059934;28;20428;-84
2022/10/12 09:01:35;;;;;;;9.07;4.35;;;;;;;;;;5039712;28;20033;-84
2022/10/12 09:04:04;;;;;;;8.63;4.20;;;;;;;;;;5041803;28;20052;-84
2022/10/12 09:06:49;;;;;;;8.60;4.65;;;;;;;;;;5059184;28;20028;-84
2022/10/12 09:09:41;;;;;;;8.00;4.60;;;;;;;;;;5058693;28;20056;-84
2022/10/12 09:12:26;;;;;;;8.70;4.23;;;;;;;;;;5057721;28;20029;-83
2022/10/12 09:14:57;;;;;;;7.68;4.32;;;;;;;;;;5040932;28;20063;-84
2022/10/12 09:17:23;;;;;;;9.30;4.80;;;;;;;;;;5058202;28;20021;-84
2022/10/12 09:19:59;;;;;;;6.18;4.18;;;;;;;;;;5056114;28;20082;-84
2022/10/12 09:22:26;;;;;;;6.22;3.72;;;;;;;;;;5040510;28;20078;-84
2022/10/12 09:24:52;;;;;;;7.57;4.68;;;;;;;;;;5057855;28;20024;-84
2022/10/12 09:27:19;;;;;;;8.60;4.60;;;;;;;;;;5039723;28;20028;-84
2022/10/12 09:29:47;;;;;;;7.55;4.95;;;;;;;;;;5058372;28;20021;-84
2022/10/12 09:32:19;;;;;;;10.50;5.15;;;;;;;;;;5057444;28;20053;-84
2022/10/12 09:34:45;;;;;;;7.60;4.30;;;;;;;;;;5057424;28;20025;-85
2022/10/12 09:37:13;;;;;;;8.32;4.30;;;;;;;;;;5057697;28;20425;-83
2022/10/12 09:39:39;;;;;;;8.50;4.30;;;;;;;;;;5056834;28;20056;-84
2022/10/12 09:42:05;;;;;;;8.60;4.22;;;;;;;;;;5057891;28;20025;-83
2022/10/12 09:44:36;;;;;;;9.18;4.43;;;;;;;;;;5057347;28;20082;-84
2022/10/12 09:47:05;;;;;;;9.32;4.50;;;;;;;;;;5039835;28;20025;-82
2022/10/12 09:49:45;;;;;;;7.22;4.53;;;;;;;;;;5056151;28;20021;-83
2022/10/12 09:52:12;;;;;;;6.05;4.03;;;;;;;;;;5039516;28;20033;-83
2022/10/12 09:54:40;;;;;;;8.10;4.38;;;;;;;;;;5039109;28;20032;-85
2022/10/12 09:57:06;;;;;;;7.55;4.30;;;;;;;;;;5056930;28;20024;-85
2022/10/12 09:59:36;;;;;;;9.20;4.78;;;;;;;;;;5056235;28;20428;-84
2022/10/12 10:02:11;;;;;;;7.78;4.68;;;;;;;;;;5056307;28;20044;-85
2022/10/12 10:04:38;;;;;;;6.50;3.78;;;;;;;;;;5055444;28;20021;-84
2022/10/12 10:07:19;;;;;;;8.15;4.30;;;;;;;;;;5037442;28;20021;-85
2022/10/12 10:09:46;;;;;;;7.45;4.28;;;;;;;;;;5036638;28;20027;-86
2022/10/12 10:12:14;;;;;;;9.13;3.95;;;;;;;;;;5059146;28;20432;-84
2022/10/12 10:14:43;;;;;;;7.10;4.32;;;;;;;;;;5057428;28;20021;-84
2022/10/12 10:17:14;;;;;;;7.90;4.07;;;;;;;;;;5058676;28;20036;-85
2022/10/12 10:19:40;;;;;;;6.93;3.78;;;;;;;;;;5057110;28;20075;-85
2022/10/12 10:22:06;;;;;;;8.15;4.68;;;;;;;;;;5059192;28;20479;-86
2022/10/12 10:24:32;;;;;;;8.48;3.92;;;;;;;;;;5056621;28;20108;-86
2022/10/12 10:27:00;;;;;;;7.28;4.13;;;;;;;;;;5056124;28;20655;-84
2022/10/12 10:29:32;;;;;;;6.05;3.70;;;;;;;;;;5056702;28;20025;-84
2022/10/12 10:32:28;;;;;;;7.67;4.00;;;;;;;;;;5056870;28;20025;-85
2022/10/12 10:35:13;;;;;;;7.70;4.13;;;;;;;;;;5039583;28;20271;-85
2022/10/12 10:37:43;;;;;;;8.00;3.85;;;;;;;;;;5055293;28;20036;-85
2022/10/12 10:40:27;;;;;;;6.28;3.50;;;;;;;;;;5047641;28;20077;-84
2022/10/12 10:42:55;;;;;;;6.78;4.10;;;;;;;;;;5056074;28;20126;-84
2022/10/12 10:45:26;;;;;;;9.18;3.85;;;;;;;;;;5034101;28;20034;-84
2022/10/12 10:48:00;;;;;;;6.43;3.67;;;;;;;;;;5049628;28;20024;-84
2022/10/12 10:50:28;;;;;;;7.85;4.15;;;;;;;;;;5043737;28;20024;-84
2022/10/12 10:52:57;;;;;;;8.35;4.03;;;;;;;;;;5041564;28;20021;-83
2022/10/12 10:55:28;;;;;;;6.97;3.70;;;;;;;;;;5059911;28;20029;-84
2022/10/12 10:58:15;;;;;;;6.55;3.45;;;;;;;;;;5060473;28;20029;-84
2022/10/12 11:00:47;;;;;;;10.48;4.10;;;;;;;;;;5058802;28;20037;-84
2022/10/12 11:03:13;;;;;;;;;;;;;;;;;;5060174;28;20021;-84
2022/10/12 11:05:44;;;;;;;7.72;3.65;;;;;;;;;;5059534;28;19920;-84
2022/10/12 11:08:25;;;;;;;6.53;4.05;;;;;;;;;;5045038;28;20479;-84
2022/10/12 11:11:15;;;;;;;7.57;3.80;;;;;;;;;;5058809;28;20479;-83
2022/10/12 11:13:43;;;;;;;8.85;4.28;;;;;;;;;;5059555;28;20029;-83
2022/10/12 11:16:24;;;;;;;7.00;3.65;;;;;;;;;;5058481;28;20126;-85
2022/10/12 11:18:53;;;;;;;7.63;5.15;;;;;;;;;;5055757;28;20119;-85
2022/10/12 11:21:19;;;;;;;7.72;3.80;;;;;;;;;;5056992;28;20044;-85
2022/10/12 11:23:48;;;;;;;5.90;3.40;;;;;;;;;;5057789;28;20391;-84
2022/10/12 11:26:21;;;;;;;7.43;3.75;;;;;;;;;;5056703;28;20036;-85
2022/10/12 11:28:48;;;;;;;8.85;3.63;;;;;;;;;;5055680;28;20029;-85
2022/10/12 11:31:18;;;;;;;7.85;3.42;;;;;;;;;;5057490;28;20021;-85
2022/10/12 11:33:44;;;;;;;7.47;3.78;;;;;;;;;;5054800;28;20024;-85
2022/10/12 11:36:13;;;;;;;6.53;3.78;;;;;;;;;;5055577;28;20021;-85
2022/10/12 11:38:47;;;;;;;7.53;3.35;;;;;;;;;;5036812;28;20048;-85
2022/10/12 11:41:17;;;;;;;7.90;3.30;;;;;;;;;;5056345;28;20075;-85
2022/10/12 11:43:43;;;;;;;7.80;3.88;;;;;;;;;;5036323;28;20043;-86
2022/10/12 11:46:12;;;;;;;6.90;3.72;;;;;;;;;;5053585;28;20507;-86
2022/10/12 11:48:44;;;;;;;7.80;3.80;;;;;;;;;;5051470;28;20025;-86
2022/10/12 11:51:11;;;;;;;7.57;4.32;;;;;;;;;;5038628;28;20017;-85
2022/10/12 11:53:43;;;;;;;7.25;3.85;;;;;;;;;;5037988;28;20025;-85
2022/10/12 11:56:27;;;;;;;8.27;3.92;;;;;;;;;;5055923;28;20024;-86
2022/10/12 11:59:05;;;;;;;8.13;3.78;;;;;;;;;;5034876;28;20714;-86
2022/10/12 12:01:34;;;;;;;6.70;3.80;;;;;;;;;;5036407;28;20029;-87
2022/10/12 12:04:18;;;;;;;6.28;3.60;;;;;;;;;;5037112;28;20028;-85
2022/10/12 12:06:47;;;;;;;6.18;3.20;;;;;;;;;;5035121;28;20108;-86
2022/10/12 12:09:21;;;;;;;6.45;3.97;;;;;;;;;;5055650;28;20021;-85
2022/10/12 12:11:47;;;;;;;9.00;3.78;;;;;;;;;;5038992;28;20025;-86
2022/10/12 12:14:25;;;;;;;7.22;3.75;;;;;;;;;;5053837;28;20048;-85
2022/10/12 12:17:10;;;;;;;9.65;3.90;;;;;;;;;;5055593;28;20640;-84
2022/10/12 12:19:37;;;;;;;6.45;3.58;;;;;;;;;;5059743;28;20029;-86
2022/10/12 12:22:14;;;;;;;6.85;3.53;;;;;;;;;;5039872;28;20062;-84
2022/10/12 12:24:40;;;;;;;7.00;3.97;;;;;;;;;;5058352;28;20033;-85
2022/10/12 12:27:20;;;;;;;7.25;3.67;;;;;;;;;;5052424;28;20029;-85
2022/10/12 12:29:51;;;;;;;6.80;3.35;;;;;;;;;;5049231;28;20368;-85
2022/10/12 12:32:17;;;;;;;7.10;3.53;;;;;;;;;;5056146;28;20046;-86
2022/10/12 12:34:53;;;;;;;5.70;3.60;;;;;;;;;;5044235;28;20029;-86
2022/10/12 12:37:21;;;;;;;8.85;4.25;;;;;;;;;;5056896;28;20021;-85
2022/10/12 12:39:55;;;;;;;7.03;3.72;;;;;;;;;;5074041;28;20040;-85
2022/10/12 12:42:24;;;;;;;6.75;4.18;;;;;;;;;;5064972;28;20025;-85
2022/10/12 12:44:50;;;;;;;8.35;3.80;;;;;;;;;;5055706;28;20024;-85
2022/10/12 12:47:19;;;;;;;10.68;4.57;;;;;;;;;;5073589;28;20038;-85
2022/10/12 12:49:50;;;;;;;6.28;3.47;;;;;;;;;;5070449;28;20029;-85
2022/10/12 12:52:29;;;;;;;8.15;4.47;;;;;;;;;;5063501;28;20029;-83
2022/10/12 12:54:55;;;;;;;8.05;3.92;;;;;;;;;;5063638;28;20024;-84
2022/10/12 12:57:33;;;;;;;7.43;3.63;;;;;;;;;;5056341;28;20028;-83
2022/10/12 13:00:18;;;;;;;6.15;3.25;;;;;;;;;;5044023;28;20036;-85
2022/10/12 13:02:45;;;;;;;7.38;3.85;;;;;;;;;;5052935;28;20040;-84
2022/10/12 13:05:23;;;;;;;6.32;3.80;;;;;;;;;;5057257;28;20399;-83
2022/10/12 13:07:58;;;;;;;7.00;3.85;;;;;;;;;;5056800;28;20105;-85
2022/10/12 13:10:30;;;;;;;6.13;3.63;;;;;;;;;;5043554;28;20017;-84
2022/10/12 13:13:06;;;;;;;7.22;3.70;;;;;;;;;;5058899;28;20033;-83
2022/10/12 13:15:38;;;;;;;7.32;4.20;;;;;;;;;;5058934;28;20043;-84
2022/10/12 13:18:22;;;;;;;6.82;3.92;;;;;;;;;;5057476;28;20036;-84
2022/10/12 13:20:49;;;;;;;7.10;3.63;;;;;;;;;;5040121;28;20090;-84
2022/10/12 13:23:25;;;;;;;5.80;3.45;;;;;;;;;;5061155;28;20498;-85
2022/10/12 13:26:00;;;;;;;8.80;4.57;;;;;;;;;;5064450;28;20108;-85
2022/10/12 13:28:31;;;;;;;7.95;3.90;;;;;;;;;;5054307;28;20483;-84
2022/10/12 13:31:02;;;;;;;6.70;3.65;;;;;;;;;;5059266;28;20023;-85
2022/10/12 13:33:38;;;;;;;9.52;4.63;;;;;;;;;;5054933;28;20422;-85
2022/10/12 13:36:12;;;;;;;10.63;4.82;;;;;;;;;;5052171;28;20043;-85
2022/10/12 13:38:39;;;;;;;7.15;4.00;;;;;;;;;;5038373;28;20060;-85
2022/10/12 13:41:07;;;;;;;7.22;4.28;;;;;;;;;;5054475;28;20025;-85
2022/10/12 13:43:33;;;;;;;7.72;3.92;;;;;;;;;;5057983;28;20028;-85
2022/10/12 13:46:00;;;;;;;6.93;4.20;;;;;;;;;;5056110;28;20033;-85
2022/10/12 13:48:26;;;;;;;9.63;4.60;;;;;;;;;;5038881;28;20017;-84
2022/10/12 13:50:57;;;;;;;8.95;4.75;;;;;;;;;;5053157;28;20395;-81
2022/10/12 13:53:23;;;;;;;7.78;4.60;;;;;;;;;;5055328;28;20021;-81
2022/10/12 13:55:58;;;;;;;6.10;3.95;;;;;;;;;;5056681;28;20044;-80
2022/10/12 13:58:27;;;;;;;8.10;4.35;;;;;;;;;;5055760;28;20039;-81
2022/10/12 14:00:54;;;;;;;8.63;4.63;;;;;;;;;;5053119;28;20032;-82
2022/10/12 14:03:23;;;;;;;7.63;4.57;;;;;;;;;;5054131;28;20494;-80
2022/10/12 14:05:52;;;;;;;7.65;3.97;;;;;;;;;;5057200;28;20047;-80
2022/10/12 14:08:21;;;;;;;7.55;4.35;;;;;;;;;;5054684;28;20111;-80
2022/10/12 14:10:48;;;;;;;10.65;5.03;;;;;;;;;;5053215;28;20055;-80
2022/10/12 14:13:15;;;;;;;9.80;4.93;;;;;;;;;;5043180;28;20026;-81
2022/10/12 14:15:41;;;;;;;9.10;4.85;;;;;;;;;;5034895;28;20052;-80
2022/10/12 14:18:26;;;;;;;6.30;4.15;;;;;;;;;;5045037;28;20032;-81
2022/10/12 14:21:03;;;;;;;6.93;4.20;;;;;;;;;;5052287;28;20044;-81
2022/10/12 14:23:29;;;;;;;7.45;4.50;;;;;;;;;;5053009;28;20033;-82
2022/10/12 14:25:56;;;;;;;8.68;4.90;;;;;;;;;;5035979;28;20605;-82
2022/10/12 14:28:36;;;;;;;7.78;4.68;;;;;;;;;;5052352;28;20498;-82
2022/10/12 14:31:03;;;;;;;8.40;4.57;;;;;;;;;;5037500;28;20029;-80
2022/10/12 14:33:30;;;;;;;8.55;4.55;;;;;;;;;;5052847;28;20139;-81
2022/10/12 14:36:13;;;;;;;7.70;5.32;;;;;;;;;;5053007;28;20032;-81
2022/10/12 14:38:44;;;;;;;13.10;5.68;;;;;;;;;;5042115;28;20041;-82
2022/10/12 14:41:28;;;;;;;11.05;6.25;;;;;;;;;;5049298;28;20107;-80
2022/10/12 14:44:10;;;;;;;9.70;6.03;;;;;;;;;;5052726;28;20360;-80
2022/10/12 14:46:41;;;;;;;11.10;6.38;;;;;;;;;;5052372;28;20074;-81
2022/10/12 14:49:14;;;;;;;10.07;6.03;;;;;;;;;;5050400;28;20025;-81
2022/10/12 14:51:40;;;;;;;10.23;6.18;;;;;;;;;;5053074;28;20024;-81